createdAt,value
2023-05-25T00:00:19.182Z,8.10
2023-05-25T00:02:49.510Z,10.03
2023-05-25T00:05:18.344Z,7.57
2023-05-25T00:07:45.370Z,8.93
2023-05-25T00:10:12.369Z,7.10
2023-05-25T00:12:39.418Z,9.60
2023-05-25T00:15:07.096Z,9.97
2023-05-25T00:17:37.117Z,10.03
2023-05-25T00:20:07.919Z,7.77
2023-05-25T00:22:36.519Z,11.93
2023-05-25T00:25:06.988Z,8.93
2023-05-25T00:27:33.805Z,9.97
2023-05-25T00:30:00.805Z,14.50
2023-05-25T00:32:27.880Z,12.37
2023-05-25T00:34:55.443Z,8.43
2023-05-25T00:37:22.390Z,8.93
2023-05-25T00:39:49.206Z,9.37
2023-05-25T00:42:16.405Z,10.00
2023-05-25T00:44:43.473Z,10.03
2023-05-25T00:47:11.876Z,10.93
2023-05-25T00:49:38.779Z,10.60
2023-05-25T00:52:06.256Z,11.90
2023-05-25T00:54:35.249Z,9.47
2023-05-25T00:57:07.314Z,9.67
2023-05-25T00:59:41.769Z,11.57
2023-05-25T01:02:11.038Z,12.53
2023-05-25T01:04:46.951Z,12.50
2023-05-25T01:07:22.599Z,9.37
2023-05-25T01:09:57.012Z,10.97
2023-05-25T01:12:27.084Z,11.77
2023-05-25T01:14:55.969Z,9.97
2023-05-25T01:17:22.936Z,11.33
2023-05-25T01:20:09.057Z,9.07
2023-05-25T01:22:41.102Z,10.10
2023-05-25T01:25:13.767Z,11.97
2023-05-25T01:27:54.089Z,9.80
2023-05-25T01:30:25.162Z,8.90
2023-05-25T01:32:54.127Z,12.83
2023-05-25T01:35:22.426Z,11.83
2023-05-25T01:37:49.933Z,9.33
2023-05-25T01:40:16.884Z,9.47
2023-05-25T01:42:44.091Z,12.93
2023-05-25T01:45:13.536Z,12.63
2023-05-25T01:48:11.574Z,15.73
2023-05-25T01:51:01.822Z,10.30
2023-05-25T01:53:34.022Z,9.80
2023-05-25T01:56:11.589Z,12.07
2023-05-25T01:58:44.468Z,16.63
2023-05-25T02:01:14.464Z,13.80
2023-05-25T02:03:46.869Z,12.87
2023-05-25T02:06:13.850Z,10.17
2023-05-25T02:08:40.636Z,10.60
2023-05-25T02:11:07.874Z,9.27
2023-05-25T02:13:35.228Z,13.93
2023-05-25T02:16:02.506Z,10.13
2023-05-25T02:18:29.376Z,10.80
2023-05-25T02:20:56.191Z,9.03
2023-05-25T02:23:23.012Z,10.20
2023-05-25T02:25:51.747Z,7.77
2023-05-25T02:28:18.885Z,9.93
2023-05-25T02:30:45.872Z,8.60
2023-05-25T02:33:13.898Z,9.90
2023-05-25T02:35:42.018Z,7.30
2023-05-25T02:38:09.392Z,9.97
2023-05-25T02:40:36.656Z,14.03
2023-05-25T02:43:03.835Z,9.60
2023-05-25T02:45:31.018Z,8.60
2023-05-25T02:47:58.192Z,7.47
2023-05-25T02:50:25.515Z,9.53
2023-05-25T02:52:52.743Z,10.33
2023-05-25T02:55:19.966Z,8.97
2023-05-25T02:57:47.574Z,9.37
2023-05-25T03:00:15.077Z,12.40
2023-05-25T03:02:42.336Z,9.90
2023-05-25T03:05:09.740Z,12.63
2023-05-25T03:07:36.942Z,12.47
2023-05-25T03:10:04.556Z,14.50
2023-05-25T03:12:31.730Z,11.20
2023-05-25T03:14:59.001Z,10.17
2023-05-25T03:17:26.377Z,13.13
2023-05-25T03:19:53.739Z,10.60
2023-05-25T03:22:20.950Z,10.20
2023-05-25T03:24:50.152Z,14.57
2023-05-25T03:27:17.381Z,13.33
2023-05-25T03:29:44.548Z,15.80
2023-05-25T03:32:11.796Z,18.73
2023-05-25T03:34:40.364Z,14.50
2023-05-25T03:37:07.550Z,12.90
2023-05-25T03:39:34.737Z,14.00
2023-05-25T03:42:02.873Z,16.33
2023-05-25T03:44:30.072Z,13.33
2023-05-25T03:46:57.271Z,17.07
2023-05-25T03:49:24.457Z,17.47
2023-05-25T03:51:51.645Z,16.73
2023-05-25T03:54:18.887Z,15.43
2023-05-25T03:56:46.072Z,13.33
2023-05-25T03:59:13.399Z,10.33
2023-05-25T04:01:40.630Z,17.80
2023-05-25T04:04:08.029Z,18.30
2023-05-25T04:06:37.320Z,11.90
2023-05-25T04:09:05.070Z,13.70
2023-05-25T04:11:32.488Z,17.17
2023-05-25T04:14:00.017Z,14.77
2023-05-25T04:16:27.561Z,20.80
2023-05-25T04:18:55.771Z,18.70
2023-05-25T04:21:23.310Z,13.00
2023-05-25T04:23:50.518Z,16.77
2023-05-25T04:26:17.858Z,15.40
2023-05-25T04:28:45.974Z,14.30
2023-05-25T04:31:13.532Z,12.03
2023-05-25T04:33:40.820Z,10.17
2023-05-25T04:36:11.137Z,11.77
2023-05-25T04:38:38.449Z,13.07
2023-05-25T04:41:06.525Z,14.37
2023-05-25T04:43:33.846Z,13.30
2023-05-25T04:46:01.450Z,14.27
2023-05-25T04:48:28.710Z,11.80
2023-05-25T04:50:56.215Z,11.33
2023-05-25T04:53:23.955Z,9.33
2023-05-25T04:55:51.647Z,11.77
2023-05-25T04:58:19.097Z,13.37
2023-05-25T05:00:47.267Z,16.97
2023-05-25T05:03:14.608Z,14.20
2023-05-25T05:05:42.102Z,11.63
2023-05-25T05:08:09.474Z,12.50
2023-05-25T05:10:36.706Z,19.50
2023-05-25T05:13:04.038Z,20.03
2023-05-25T05:15:31.277Z,13.27
2023-05-25T05:17:58.499Z,18.47
2023-05-25T05:20:25.981Z,20.53
2023-05-25T05:22:53.525Z,18.40
2023-05-25T05:25:20.725Z,15.67
2023-05-25T05:27:48.006Z,15.30
2023-05-25T05:30:15.265Z,13.60
2023-05-25T05:32:46.973Z,12.97
2023-05-25T05:35:14.359Z,14.87
2023-05-25T05:37:41.651Z,14.33
2023-05-25T05:40:10.769Z,12.80
2023-05-25T05:42:38.018Z,17.47
2023-05-25T05:45:05.434Z,11.27
2023-05-25T05:47:32.715Z,16.50
2023-05-25T05:49:59.952Z,17.50
2023-05-25T05:52:27.154Z,13.60
2023-05-25T05:54:54.420Z,15.20
2023-05-25T05:57:21.988Z,13.13
2023-05-25T05:59:49.246Z,14.43
2023-05-25T06:02:16.456Z,14.13
2023-05-25T06:04:43.758Z,14.17
2023-05-25T06:07:11.535Z,15.90
2023-05-25T06:09:38.750Z,11.60
2023-05-25T06:12:06.912Z,13.40
2023-05-25T06:14:34.111Z,15.83
2023-05-25T06:17:03.350Z,19.83
2023-05-25T06:19:42.079Z,22.37
2023-05-25T06:22:09.296Z,17.47
2023-05-25T06:24:36.652Z,17.47
2023-05-25T06:27:04.958Z,17.57
2023-05-25T06:29:32.201Z,16.13
2023-05-25T06:31:59.465Z,13.97
2023-05-25T06:34:26.844Z,17.00
2023-05-25T06:36:54.237Z,13.47
2023-05-25T06:39:21.432Z,14.40
2023-05-25T06:41:48.673Z,17.00
2023-05-25T06:44:16.020Z,15.53
2023-05-25T06:46:43.259Z,18.83
2023-05-25T06:49:10.799Z,16.00
2023-05-25T06:51:38.074Z,16.33
2023-05-25T06:54:05.440Z,20.63
2023-05-25T06:56:32.711Z,15.10
2023-05-25T06:58:59.925Z,20.47
2023-05-25T07:01:27.194Z,14.77
2023-05-25T07:03:54.422Z,17.20
2023-05-25T07:06:21.719Z,12.37
2023-05-25T07:08:48.934Z,14.07
2023-05-25T07:11:20.588Z,12.10
2023-05-25T07:13:47.927Z,11.93
2023-05-25T07:16:15.476Z,11.47
2023-05-25T07:18:45.232Z,20.93
2023-05-25T07:21:12.548Z,14.27
2023-05-25T07:23:42.748Z,11.23
2023-05-25T07:26:09.988Z,12.93
2023-05-25T07:28:37.234Z,16.73
2023-05-25T07:31:04.497Z,15.73
2023-05-25T07:33:31.749Z,11.93
2023-05-25T07:35:58.978Z,13.33
2023-05-25T07:38:26.534Z,10.70
2023-05-25T07:40:53.757Z,15.13
2023-05-25T07:43:21.105Z,12.53
2023-05-25T07:45:48.317Z,14.63
2023-05-25T07:48:15.649Z,13.77
2023-05-25T07:50:43.048Z,15.38
2023-05-25T07:53:10.479Z,14.52
2023-05-25T07:55:37.714Z,21.80
2023-05-25T07:58:07.425Z,20.25
2023-05-25T08:00:34.692Z,13.35
2023-05-25T08:03:02.789Z,17.30
2023-05-25T08:05:30.174Z,15.00
2023-05-25T08:07:57.381Z,16.95
2023-05-25T08:10:31.255Z,12.68
2023-05-25T08:12:59.003Z,19.55
2023-05-25T08:15:26.585Z,13.63
2023-05-25T08:17:53.941Z,15.32
2023-05-25T08:20:21.314Z,10.63
2023-05-25T08:22:48.611Z,17.08
2023-05-25T08:25:18.571Z,13.18
2023-05-25T08:27:45.933Z,13.30
2023-05-25T08:30:13.259Z,16.33
2023-05-25T08:32:40.783Z,14.55
2023-05-25T08:35:08.170Z,20.23
2023-05-25T08:37:35.719Z,16.33
2023-05-25T08:40:03.111Z,18.17
2023-05-25T08:42:30.466Z,18.50
2023-05-25T08:44:58.877Z,21.02
2023-05-25T08:47:30.323Z,23.92
2023-05-25T08:49:58.434Z,18.20
2023-05-25T08:52:29.005Z,17.85
2023-05-25T08:54:57.885Z,20.17
2023-05-25T08:57:28.253Z,19.65
2023-05-25T08:59:58.243Z,29.88
2023-05-25T09:02:40.585Z,21.40
2023-05-25T09:05:09.052Z,24.13
2023-05-25T09:07:38.711Z,19.80
2023-05-25T09:10:06.241Z,18.05
2023-05-25T09:12:33.473Z,17.40
2023-05-25T09:15:00.896Z,30.83
2023-05-25T09:17:28.081Z,26.13
2023-05-25T09:19:55.438Z,29.00
2023-05-25T09:22:22.912Z,20.00
2023-05-25T09:24:50.156Z,18.00
2023-05-25T09:27:19.259Z,20.40
2023-05-25T09:29:50.180Z,21.77
2023-05-25T09:32:17.933Z,18.75
2023-05-25T09:34:45.602Z,15.27
2023-05-25T09:37:13.937Z,15.25
2023-05-25T09:39:42.513Z,15.50
2023-05-25T09:42:10.287Z,15.80
2023-05-25T09:44:37.647Z,15.07
2023-05-25T09:47:05.563Z,12.70
2023-05-25T09:49:32.952Z,19.80
2023-05-25T09:52:01.396Z,22.05
2023-05-25T09:54:28.684Z,21.27
2023-05-25T09:56:55.925Z,14.30
2023-05-25T09:59:23.926Z,15.02
2023-05-25T10:01:54.408Z,11.15
2023-05-25T10:04:21.750Z,14.60
2023-05-25T10:06:52.081Z,12.60
2023-05-25T10:09:20.455Z,9.68
2023-05-25T10:11:48.365Z,8.70
2023-05-25T10:14:16.300Z,10.27
2023-05-25T10:16:47.185Z,13.32
2023-05-25T10:19:18.380Z,10.88
2023-05-25T10:21:52.529Z,11.18
2023-05-25T10:24:32.528Z,11.88
2023-05-25T10:27:07.682Z,9.82
2023-05-25T10:29:42.789Z,10.52
2023-05-25T10:32:10.081Z,12.90
2023-05-25T10:34:37.418Z,9.45
2023-05-25T10:37:07.444Z,9.75
2023-05-25T10:39:35.212Z,6.43
2023-05-25T10:42:02.939Z,6.68
2023-05-25T10:44:30.997Z,6.70
2023-05-25T10:46:59.556Z,13.57
2023-05-25T10:49:27.573Z,7.60
2023-05-25T10:51:58.849Z,13.55
2023-05-25T10:54:30.913Z,12.18
2023-05-25T10:57:17.174Z,10.88
2023-05-25T10:59:45.648Z,8.60
2023-05-25T11:02:12.996Z,10.25
2023-05-25T11:04:40.440Z,9.65
2023-05-25T11:07:09.102Z,7.50
2023-05-25T11:09:43.176Z,5.68
2023-05-25T11:12:23.194Z,7.47
2023-05-25T11:15:09.261Z,6.78
2023-05-25T11:17:45.127Z,7.53
2023-05-25T11:20:23.816Z,8.05
2023-05-25T11:22:52.564Z,11.35
2023-05-25T11:25:49.112Z,9.25
2023-05-25T11:28:16.582Z,11.75
2023-05-25T11:30:43.939Z,9.15
2023-05-25T11:33:11.338Z,9.38
2023-05-25T11:35:38.967Z,11.02
2023-05-25T11:38:06.897Z,9.73
2023-05-25T11:40:34.525Z,11.15
2023-05-25T11:43:03.927Z,7.82
2023-05-25T11:45:37.362Z,6.72
2023-05-25T11:48:05.809Z,6.35
2023-05-25T11:50:33.363Z,8.43
2023-05-25T11:53:00.760Z,12.25
2023-05-25T11:55:28.029Z,10.45
2023-05-25T11:57:58.803Z,8.90
2023-05-25T12:00:27.348Z,11.77
2023-05-25T12:02:54.943Z,10.75
2023-05-25T12:05:23.436Z,8.48
2023-05-25T12:07:51.417Z,7.38
2023-05-25T12:10:19.037Z,8.80
2023-05-25T12:12:47.224Z,11.10
2023-05-25T12:15:16.696Z,8.82
2023-05-25T12:17:45.862Z,7.82
2023-05-25T12:20:13.813Z,7.47
2023-05-25T12:22:41.197Z,5.78
2023-05-25T12:25:10.241Z,8.43
2023-05-25T12:27:37.557Z,5.13
2023-05-25T12:30:05.835Z,9.02
2023-05-25T12:32:33.073Z,8.18
2023-05-25T12:35:07.520Z,8.23
2023-05-25T12:37:35.077Z,8.77
2023-05-25T12:40:02.385Z,8.82
2023-05-25T12:42:30.756Z,8.30
2023-05-25T12:44:58.371Z,7.20
2023-05-25T12:47:28.732Z,8.98
2023-05-25T12:50:15.198Z,12.20
2023-05-25T12:52:46.683Z,8.05
2023-05-25T12:55:20.762Z,6.13
2023-05-25T12:57:52.355Z,14.95
2023-05-25T13:00:38.342Z,15.13
2023-05-25T13:03:09.354Z,6.18
2023-05-25T13:05:37.501Z,7.85
2023-05-25T13:08:05.417Z,6.32
2023-05-25T13:10:33.371Z,7.85
2023-05-25T13:13:02.128Z,8.90
2023-05-25T13:15:29.703Z,9.52
2023-05-25T13:18:00.367Z,12.00
2023-05-25T13:20:32.621Z,10.27
2023-05-25T13:23:00.226Z,7.00
2023-05-25T13:25:28.128Z,9.13
2023-05-25T13:27:57.672Z,7.80
2023-05-25T13:30:24.979Z,5.70
2023-05-25T13:32:52.850Z,6.80
2023-05-25T13:35:37.620Z,8.00
2023-05-25T13:38:05.373Z,4.70
2023-05-25T13:40:32.648Z,5.72
2023-05-25T13:42:59.926Z,5.97
2023-05-25T13:45:27.634Z,6.38
2023-05-25T13:47:55.096Z,5.22
2023-05-25T13:50:22.383Z,3.80
2023-05-25T13:52:49.654Z,5.40
2023-05-25T13:55:16.964Z,5.20
2023-05-25T13:57:44.327Z,7.60
2023-05-25T14:00:11.758Z,7.72
2023-05-25T14:02:39.000Z,5.07
2023-05-25T14:05:06.487Z,7.65
2023-05-25T14:07:33.965Z,5.38
2023-05-25T14:10:01.259Z,5.53
2023-05-25T14:12:28.547Z,5.38
2023-05-25T14:14:55.785Z,7.65
2023-05-25T14:17:23.085Z,5.47
2023-05-25T14:19:50.490Z,5.97
2023-05-25T14:22:17.766Z,4.55
2023-05-25T14:24:45.047Z,4.22
2023-05-25T14:27:12.278Z,5.60
2023-05-25T14:29:39.493Z,5.97
2023-05-25T14:32:06.852Z,7.07
2023-05-25T14:34:34.080Z,5.05
2023-05-25T14:37:01.345Z,6.30
2023-05-25T14:39:28.608Z,6.22
2023-05-25T14:41:56.203Z,4.80
2023-05-25T14:44:23.450Z,6.50
2023-05-25T14:46:51.052Z,6.53
2023-05-25T14:49:18.577Z,5.10
2023-05-25T14:51:51.015Z,5.32
2023-05-25T14:54:18.237Z,4.03
2023-05-25T14:56:45.475Z,4.65
2023-05-25T14:59:12.656Z,6.00
2023-05-25T15:01:40.475Z,5.88
2023-05-25T15:04:08.776Z,6.25
2023-05-25T15:06:36.848Z,5.65
2023-05-25T15:09:04.193Z,6.57
2023-05-25T15:11:31.524Z,4.32
2023-05-25T15:13:59.034Z,6.97
2023-05-25T15:16:26.299Z,5.85
2023-05-25T15:18:53.612Z,5.68
2023-05-25T15:21:20.852Z,4.35
2023-05-25T15:23:48.219Z,4.40
2023-05-25T15:26:15.472Z,5.22
2023-05-25T15:28:42.673Z,5.85
2023-05-25T15:31:09.994Z,4.95
2023-05-25T15:33:52.046Z,7.03
2023-05-25T15:36:21.334Z,3.53
2023-05-25T15:38:49.358Z,5.18
2023-05-25T15:41:17.772Z,8.60
2023-05-25T15:43:54.533Z,7.32
2023-05-25T15:46:22.104Z,6.15
2023-05-25T15:48:49.448Z,6.78
2023-05-25T15:51:16.837Z,4.00
2023-05-25T15:53:44.094Z,6.20
2023-05-25T15:56:11.478Z,7.10
2023-05-25T15:58:38.888Z,12.80
2023-05-25T16:01:06.459Z,7.78
2023-05-25T16:03:33.901Z,6.05
2023-05-25T16:06:02.232Z,10.75
2023-05-25T16:08:29.496Z,4.38
2023-05-25T16:10:56.729Z,5.28
2023-05-25T16:13:23.952Z,5.25
2023-05-25T16:15:51.184Z,5.90
2023-05-25T16:18:18.408Z,6.75
2023-05-25T16:20:45.891Z,6.68
2023-05-25T16:23:14.840Z,9.25
2023-05-25T16:25:42.173Z,13.35
2023-05-25T16:28:09.385Z,9.85
2023-05-25T16:30:36.638Z,5.43
2023-05-25T16:33:04.095Z,8.60
2023-05-25T16:35:31.405Z,8.13
2023-05-25T16:37:58.597Z,14.15
2023-05-25T16:40:26.170Z,7.40
2023-05-25T16:42:53.433Z,6.80
2023-05-25T16:45:21.040Z,4.20
2023-05-25T16:47:48.337Z,7.90
2023-05-25T16:50:15.731Z,7.63
2023-05-25T16:52:43.088Z,6.25
2023-05-25T16:55:10.382Z,6.88
2023-05-25T16:57:37.577Z,6.78
2023-05-25T17:00:04.967Z,6.38
2023-05-25T17:02:32.291Z,3.97
2023-05-25T17:04:59.576Z,6.07
2023-05-25T17:07:26.796Z,9.38
2023-05-25T17:09:54.089Z,9.20
2023-05-25T17:12:21.591Z,13.18
2023-05-25T17:14:48.827Z,9.95
2023-05-25T17:17:16.523Z,8.45
2023-05-25T17:19:43.712Z,8.13
2023-05-25T17:22:10.887Z,8.27
2023-05-25T17:24:38.118Z,7.80
2023-05-25T17:27:05.409Z,15.82
2023-05-25T17:29:33.088Z,36.95
2023-05-25T17:32:00.430Z,9.48
2023-05-25T17:34:27.692Z,8.18
2023-05-25T17:36:54.937Z,9.43
2023-05-25T17:39:22.184Z,8.80
2023-05-25T17:41:50.171Z,10.70
2023-05-25T17:44:17.555Z,12.50
2023-05-25T17:46:44.836Z,8.68
2023-05-25T17:49:12.067Z,12.18
2023-05-25T17:51:39.261Z,8.77
2023-05-25T17:54:06.717Z,10.68
2023-05-25T17:56:33.920Z,6.82
2023-05-25T17:59:01.112Z,5.47
2023-05-25T18:01:28.450Z,9.00
2023-05-25T18:03:56.315Z,9.95
2023-05-25T18:06:23.523Z,11.90
2023-05-25T18:08:51.692Z,8.93
2023-05-25T18:11:18.972Z,9.30
2023-05-25T18:13:46.150Z,8.35
2023-05-25T18:16:13.398Z,7.00
2023-05-25T18:18:40.657Z,8.43
2023-05-25T18:21:07.971Z,19.27
2023-05-25T18:23:35.223Z,8.77
2023-05-25T18:26:04.256Z,14.68
2023-05-25T18:28:31.598Z,10.25
2023-05-25T18:30:58.980Z,9.95
2023-05-25T18:33:26.225Z,13.38
2023-05-25T18:35:53.545Z,7.47
2023-05-25T18:38:20.763Z,9.80
2023-05-25T18:40:47.999Z,8.52
2023-05-25T18:43:15.326Z,13.77
2023-05-25T18:45:42.717Z,9.57
2023-05-25T18:48:10.456Z,11.07
2023-05-25T18:50:39.360Z,11.52
2023-05-25T18:53:09.812Z,18.25
2023-05-25T18:55:40.102Z,12.15
2023-05-25T18:58:07.514Z,16.83
2023-05-25T19:00:34.968Z,13.98
2023-05-25T19:03:02.324Z,11.93
2023-05-25T19:05:29.633Z,11.20
2023-05-25T19:08:02.023Z,15.05
2023-05-25T19:10:29.289Z,11.18
2023-05-25T19:12:56.695Z,13.80
2023-05-25T19:15:23.879Z,12.88
2023-05-25T19:17:51.137Z,12.50
2023-05-25T19:20:18.408Z,12.27
2023-05-25T19:22:45.666Z,13.48
2023-05-25T19:25:12.911Z,19.20
2023-05-25T19:27:40.165Z,11.60
2023-05-25T19:30:07.736Z,12.68
2023-05-25T19:32:35.149Z,12.98
2023-05-25T19:35:02.417Z,8.95
2023-05-25T19:37:29.631Z,13.25
2023-05-25T19:39:58.230Z,13.18
2023-05-25T19:42:25.446Z,15.32
2023-05-25T19:44:52.699Z,16.60
2023-05-25T19:47:20.016Z,15.80
2023-05-25T19:49:48.219Z,14.48
2023-05-25T19:52:17.991Z,64.15
2023-05-25T19:54:45.431Z,16.75
2023-05-25T19:57:12.708Z,16.65
2023-05-25T19:59:40.028Z,17.25
2023-05-25T20:02:07.363Z,16.75
2023-05-25T20:04:34.591Z,14.48
2023-05-25T20:07:01.840Z,14.70
2023-05-25T20:09:32.084Z,14.02
2023-05-25T20:11:59.721Z,13.05
2023-05-25T20:14:27.197Z,14.02
2023-05-25T20:16:55.921Z,15.07
2023-05-25T20:19:23.459Z,16.17
2023-05-25T20:21:50.862Z,10.25
2023-05-25T20:24:18.257Z,15.23
2023-05-25T20:26:45.484Z,15.70
2023-05-25T20:29:12.746Z,21.00
2023-05-25T20:31:40.549Z,14.55
2023-05-25T20:34:07.856Z,14.95
2023-05-25T20:36:35.073Z,18.77
2023-05-25T20:39:03.269Z,12.35
2023-05-25T20:41:30.846Z,14.90
2023-05-25T20:43:58.102Z,13.68
2023-05-25T20:46:26.037Z,28.52
2023-05-25T20:48:53.585Z,12.65
2023-05-25T20:51:21.919Z,19.52
2023-05-25T20:53:49.176Z,23.13
2023-05-25T20:56:16.705Z,20.17
2023-05-25T20:58:43.991Z,17.77
2023-05-25T21:01:11.491Z,14.40
2023-05-25T21:03:40.364Z,20.25
2023-05-25T21:06:07.705Z,17.48
2023-05-25T21:08:35.109Z,15.35
2023-05-25T21:11:02.531Z,15.98
2023-05-25T21:13:29.819Z,22.75
2023-05-25T21:15:57.040Z,17.05
2023-05-25T21:18:24.317Z,16.55
2023-05-25T21:20:51.561Z,19.45
2023-05-25T21:23:18.826Z,22.23
2023-05-25T21:25:46.755Z,21.15
2023-05-25T21:28:14.247Z,21.58
2023-05-25T21:30:41.490Z,17.27
2023-05-25T21:33:08.737Z,21.88
2023-05-25T21:35:35.929Z,17.10
2023-05-25T21:38:03.152Z,23.43
2023-05-25T21:40:30.342Z,21.90
2023-05-25T21:42:57.602Z,12.70
2023-05-25T21:45:25.255Z,18.00
2023-05-25T21:47:52.663Z,21.43
2023-05-25T21:50:19.940Z,24.40
2023-05-25T21:52:47.265Z,15.70
2023-05-25T21:55:14.455Z,18.33
2023-05-25T21:57:42.864Z,29.37
2023-05-25T22:00:10.857Z,17.73
2023-05-25T22:02:38.202Z,28.57
2023-05-25T22:05:05.871Z,25.20
2023-05-25T22:07:33.096Z,19.13
2023-05-25T22:10:00.484Z,14.30
2023-05-25T22:12:27.742Z,14.65
2023-05-25T22:14:54.934Z,15.77
2023-05-25T22:17:22.184Z,22.77
2023-05-25T22:20:05.964Z,17.40
2023-05-25T22:22:34.929Z,10.97
2023-05-25T22:25:02.204Z,20.83
2023-05-25T22:27:29.425Z,13.67
2023-05-25T22:29:56.650Z,19.00
2023-05-25T22:32:23.870Z,17.93
2023-05-25T22:34:51.051Z,20.20
2023-05-25T22:37:18.344Z,20.70
2023-05-25T22:39:45.635Z,17.37
2023-05-25T22:42:12.822Z,20.93
2023-05-25T22:44:40.022Z,20.57
2023-05-25T22:47:07.629Z,17.00
2023-05-25T22:49:41.232Z,17.20
2023-05-25T22:52:11.296Z,24.13
2023-05-25T22:54:38.596Z,23.23
2023-05-25T22:57:06.369Z,17.53
2023-05-25T22:59:33.621Z,20.73
2023-05-25T23:02:00.997Z,20.27
2023-05-25T23:04:28.238Z,15.30
2023-05-25T23:06:55.547Z,15.53
2023-05-25T23:09:22.852Z,21.30
2023-05-25T23:11:50.212Z,37.37
2023-05-25T23:14:17.411Z,16.53
2023-05-25T23:16:48.528Z,17.50
2023-05-25T23:19:16.710Z,22.03
2023-05-25T23:21:44.561Z,17.57
2023-05-25T23:24:11.805Z,15.73
2023-05-25T23:26:38.980Z,18.10
2023-05-25T23:29:06.231Z,17.37
2023-05-25T23:31:33.494Z,18.97
2023-05-25T23:34:00.708Z,17.53
2023-05-25T23:36:28.343Z,18.67
2023-05-25T23:38:56.028Z,13.83
2023-05-25T23:41:23.324Z,17.83
2023-05-25T23:43:50.734Z,26.03
2023-05-25T23:46:18.157Z,17.33
2023-05-25T23:48:45.796Z,13.53
2023-05-25T23:51:13.273Z,21.93
2023-05-25T23:53:40.559Z,12.27
2023-05-25T23:56:07.904Z,19.87
2023-05-25T23:58:35.726Z,25.53
